createdAt,value
2022-08-17T00:00:44.061Z,99236.13
2022-08-17T00:03:22.274Z,99235.88
2022-08-17T00:06:07.736Z,99238.34
2022-08-17T00:08:42.012Z,99243.31
2022-08-17T00:11:14.438Z,99239.04
2022-08-17T00:13:55.930Z,99241.36
2022-08-17T00:16:56.436Z,99239.60
2022-08-17T00:19:23.140Z,99235.36
2022-08-17T00:22:32.214Z,99231.89
2022-08-17T00:24:44.107Z,99231.11
2022-08-17T00:27:12.266Z,99231.02
2022-08-17T00:29:40.663Z,99232.99
2022-08-17T00:33:14.716Z,99226.76
2022-08-17T00:34:56.972Z,99224.36
2022-08-17T00:37:25.079Z,99226.70
2022-08-17T00:39:53.220Z,99232.17
2022-08-17T00:42:21.414Z,99235.95
2022-08-17T00:44:49.656Z,99237.02
2022-08-17T00:47:17.932Z,99234.91
2022-08-17T00:49:46.210Z,99236.48
2022-08-17T00:52:20.354Z,99234.52
2022-08-17T00:54:51.900Z,99236.40
2022-08-17T00:57:36.852Z,99236.56
2022-08-17T01:00:32.763Z,99242.88
2022-08-17T01:03:08.610Z,99239.33
2022-08-17T01:05:42.239Z,99238.64
2022-08-17T01:08:14.032Z,99239.90
2022-08-17T01:10:59.865Z,99237.59
2022-08-17T01:13:41.244Z,99238.23
2022-08-17T01:16:19.863Z,99235.51
2022-08-17T01:18:50.971Z,99244.25
2022-08-17T01:21:31.463Z,99238.52
2022-08-17T01:24:00.692Z,99246.88
2022-08-17T01:26:31.659Z,99252.73
2022-08-17T01:29:01.648Z,99254.59
2022-08-17T01:31:46.119Z,99244.84
2022-08-17T01:34:16.395Z,99240.69
2022-08-17T01:36:47.383Z,99235.23
2022-08-17T01:39:25.100Z,99231.84
2022-08-17T01:41:58.734Z,99233.12
2022-08-17T01:44:28.162Z,99233.65
2022-08-17T01:46:56.319Z,99234.53
2022-08-17T01:49:24.439Z,99230.48
2022-08-17T01:51:52.664Z,99233.67
2022-08-17T01:54:22.262Z,99231.88
2022-08-17T01:56:52.284Z,99233.56
2022-08-17T01:59:20.626Z,99232.55
2022-08-17T02:01:49.359Z,99227.45
2022-08-17T02:04:17.507Z,99226.02
2022-08-17T02:06:53.715Z,99226.27
2022-08-17T02:09:26.284Z,99222.71
2022-08-17T02:12:39.469Z,99221.06
2022-08-17T02:14:51.051Z,99222.05
2022-08-17T02:17:19.179Z,99224.88
2022-08-17T02:19:47.326Z,99221.06
2022-08-17T02:22:15.874Z,99218.86
2022-08-17T02:24:59.964Z,99215.05
2022-08-17T02:27:30.644Z,99218.90
2022-08-17T02:29:58.913Z,99220.76
2022-08-17T02:32:28.606Z,99222.73
2022-08-17T02:34:58.101Z,99223.49
2022-08-17T02:37:28.403Z,99221.55
2022-08-17T02:39:58.679Z,99224.73
2022-08-17T02:42:34.315Z,99228.52
2022-08-17T02:45:05.972Z,99233.34
2022-08-17T02:47:34.963Z,99235.00
2022-08-17T02:50:04.388Z,99233.67
2022-08-17T02:52:43.238Z,99237.25
2022-08-17T02:55:20.937Z,99241.33
2022-08-17T02:57:50.026Z,99240.95
2022-08-17T03:00:29.151Z,99238.19
2022-08-17T03:02:57.585Z,99241.89
2022-08-17T03:05:27.966Z,99242.59
2022-08-17T03:07:56.871Z,99247.74
2022-08-17T03:10:25.679Z,99253.77
2022-08-17T03:12:54.667Z,99254.58
2022-08-17T03:15:26.193Z,99255.05
2022-08-17T03:17:55.742Z,99255.52
2022-08-17T03:20:25.739Z,99260.11
2022-08-17T03:22:56.151Z,99265.27
2022-08-17T03:25:34.529Z,99261.42
2022-08-17T03:28:04.317Z,99264.38
2022-08-17T03:30:33.275Z,99268.17
2022-08-17T03:33:04.241Z,99270.89
2022-08-17T03:35:35.018Z,99275.48
2022-08-17T03:38:04.262Z,99272.70
2022-08-17T03:40:34.585Z,99277.15
2022-08-17T03:43:22.876Z,99275.16
2022-08-17T03:46:19.277Z,99268.33
2022-08-17T03:49:14.425Z,99264.86
2022-08-17T03:52:01.519Z,99266.47
2022-08-17T03:54:48.520Z,99269.72
2022-08-17T03:57:16.783Z,99269.37
2022-08-17T03:59:45.340Z,99269.51
2022-08-17T04:02:21.720Z,99268.95
2022-08-17T04:04:54.329Z,99269.16
2022-08-17T04:07:24.913Z,99270.36
2022-08-17T04:09:53.242Z,99271.13
2022-08-17T04:12:23.758Z,99274.27
2022-08-17T04:14:54.661Z,99272.64
2022-08-17T04:17:26.426Z,99274.48
2022-08-17T04:19:55.548Z,99273.98
2022-08-17T04:22:30.461Z,99272.23
2022-08-17T04:25:15.510Z,99264.25
2022-08-17T04:27:43.624Z,99265.48
2022-08-17T04:30:13.433Z,99268.52
2022-08-17T04:33:10.488Z,99264.77
2022-08-17T04:35:50.271Z,99265.88
2022-08-17T04:38:22.392Z,99263.90
2022-08-17T04:41:10.985Z,99263.20
2022-08-17T04:43:40.980Z,99265.17
2022-08-17T04:46:12.568Z,99266.27
2022-08-17T04:48:43.706Z,99266.15
2022-08-17T04:51:20.138Z,99266.07
2022-08-17T04:53:53.975Z,99265.38
2022-08-17T04:56:26.069Z,99268.34
2022-08-17T04:58:58.269Z,99269.77
2022-08-17T05:01:29.673Z,99272.17
2022-08-17T05:04:00.315Z,99271.67
2022-08-17T05:06:49.746Z,99270.98
2022-08-17T05:09:18.815Z,99275.61
2022-08-17T05:11:47.441Z,99280.85
2022-08-17T05:14:15.692Z,99282.10
2022-08-17T05:16:46.006Z,99283.48
2022-08-17T05:19:14.203Z,99285.59
2022-08-17T05:21:42.345Z,99276.89
2022-08-17T05:24:16.743Z,99285.99
2022-08-17T05:27:03.853Z,99287.11
2022-08-17T05:29:35.981Z,99285.05
2022-08-17T05:32:39.173Z,99282.27
2022-08-17T05:35:00.636Z,99279.48
2022-08-17T05:37:29.004Z,99284.75
2022-08-17T05:39:57.273Z,99284.72
2022-08-17T05:42:25.466Z,99281.61
2022-08-17T05:44:58.075Z,99286.94
2022-08-17T05:47:27.448Z,99285.67
2022-08-17T05:49:55.716Z,99281.29
2022-08-17T05:52:38.764Z,99287.52
2022-08-17T05:55:14.551Z,99286.09
2022-08-17T05:58:00.471Z,99287.74
2022-08-17T06:00:42.171Z,99285.52
2022-08-17T06:03:25.177Z,99282.88
2022-08-17T06:06:22.387Z,99278.26
2022-08-17T06:09:15.090Z,99282.21
2022-08-17T06:11:54.242Z,99282.86
2022-08-17T06:15:02.050Z,99278.84
2022-08-17T06:17:31.237Z,99280.97
2022-08-17T06:20:06.565Z,99276.70
2022-08-17T06:22:46.210Z,99271.35
2022-08-17T06:25:38.947Z,99262.38
2022-08-17T06:28:16.414Z,99268.48
2022-08-17T06:30:59.484Z,99262.86
2022-08-17T06:33:34.512Z,99260.86
2022-08-17T06:36:17.676Z,99259.63
2022-08-17T06:38:50.002Z,99263.33
2022-08-17T06:41:45.742Z,99265.72
2022-08-17T06:44:50.902Z,99266.02
2022-08-17T06:47:29.573Z,99264.45
2022-08-17T06:50:07.759Z,99259.70
2022-08-17T06:52:50.124Z,99262.08
2022-08-17T06:55:34.439Z,99256.71
2022-08-17T06:58:15.969Z,99256.69
2022-08-17T07:00:47.880Z,99259.16
2022-08-17T07:03:55.833Z,99263.88
2022-08-17T07:06:38.617Z,99261.63
2022-08-17T07:09:17.490Z,99262.41
2022-08-17T07:11:53.285Z,99262.85
2022-08-17T07:14:39.688Z,99265.08
2022-08-17T07:17:11.216Z,99268.91
2022-08-17T07:19:41.442Z,99266.68
2022-08-17T07:22:21.320Z,99269.62
2022-08-17T07:24:57.385Z,99270.89
2022-08-17T07:27:38.207Z,99267.46
2022-08-17T07:30:10.291Z,99267.14
2022-08-17T07:32:47.621Z,99260.71
2022-08-17T07:35:22.237Z,99261.67
2022-08-17T07:38:25.859Z,99264.64
2022-08-17T07:41:05.161Z,99266.80
2022-08-17T07:43:39.513Z,99272.98
2022-08-17T07:46:37.001Z,99280.80
2022-08-17T07:49:08.459Z,99282.21
2022-08-17T07:51:40.954Z,99285.76
2022-08-17T07:54:22.758Z,99284.15
2022-08-17T07:57:29.985Z,99288.14
2022-08-17T08:00:01.659Z,99293.90
2022-08-17T08:02:42.402Z,99293.48
2022-08-17T08:05:13.368Z,99296.00
2022-08-17T08:08:22.648Z,99296.41
2022-08-17T08:11:25.268Z,99298.20
2022-08-17T08:13:53.435Z,99294.64
2022-08-17T08:16:25.911Z,99292.72
2022-08-17T08:18:58.126Z,99291.86
2022-08-17T08:21:44.966Z,99286.27
2022-08-17T08:24:43.870Z,99281.73
2022-08-17T08:27:58.084Z,99278.73
2022-08-17T08:30:28.361Z,99280.20
2022-08-17T08:33:24.121Z,99282.39
2022-08-17T08:36:00.127Z,99289.41
2022-08-17T08:38:49.698Z,99289.46
2022-08-17T08:41:36.032Z,99291.00
2022-08-17T08:45:00.064Z,99289.09
2022-08-17T08:47:41.687Z,99289.89
2022-08-17T08:50:37.620Z,99294.27
2022-08-17T08:53:21.471Z,99291.73
2022-08-17T08:55:55.967Z,99296.79
2022-08-17T08:58:50.885Z,99296.81
2022-08-17T09:01:30.284Z,99295.83
2022-08-17T09:04:24.108Z,99299.52
2022-08-17T09:07:31.459Z,99295.98
2022-08-17T09:10:03.675Z,99294.54
2022-08-17T09:12:31.744Z,99292.02
2022-08-17T09:15:12.995Z,99295.13
2022-08-17T09:18:14.580Z,99294.23
2022-08-17T09:21:00.509Z,99297.09
2022-08-17T09:23:36.442Z,99292.91
2022-08-17T09:26:24.335Z,99298.23
2022-08-17T09:28:59.200Z,99303.70
2022-08-17T09:31:49.269Z,99306.08
2022-08-17T09:34:28.185Z,99310.15
2022-08-17T09:37:20.740Z,99316.13
2022-08-17T09:40:23.122Z,99313.65
2022-08-17T09:43:10.250Z,99316.42
2022-08-17T09:46:04.237Z,99317.20
2022-08-17T09:48:36.107Z,99312.11
2022-08-17T09:51:09.773Z,99312.22
2022-08-17T09:53:39.780Z,99310.79
2022-08-17T09:56:41.064Z,99310.52
2022-08-17T09:59:18.074Z,99312.02
2022-08-17T10:02:25.328Z,99308.48
2022-08-17T10:05:05.516Z,99308.27
2022-08-17T10:08:28.833Z,99307.77
2022-08-17T10:10:59.056Z,99306.56
2022-08-17T10:13:28.189Z,99304.19
2022-08-17T10:16:24.268Z,99308.59
2022-08-17T10:19:05.424Z,99302.80
2022-08-17T10:22:00.976Z,99296.48
2022-08-17T10:25:22.749Z,99298.38
2022-08-17T10:27:58.311Z,99296.63
2022-08-17T10:30:31.577Z,99295.58
2022-08-17T10:33:15.742Z,99293.55
2022-08-17T10:35:59.126Z,99286.89
2022-08-17T10:38:39.359Z,99278.66
2022-08-17T10:41:24.301Z,99281.35
2022-08-17T10:44:39.722Z,99282.67
2022-08-17T10:47:15.472Z,99279.60
2022-08-17T10:49:52.296Z,99279.68
2022-08-17T10:52:20.394Z,99282.52
2022-08-17T10:55:16.333Z,99279.42
2022-08-17T10:57:50.360Z,99275.33
2022-08-17T11:00:25.608Z,99273.77
2022-08-17T11:02:58.050Z,99274.34
2022-08-17T11:05:43.754Z,99272.13
2022-08-17T11:08:40.073Z,99269.88
2022-08-17T11:11:36.045Z,99264.84
2022-08-17T11:14:47.459Z,99267.79
2022-08-17T11:17:50.898Z,99268.90
2022-08-17T11:20:38.872Z,99269.70
2022-08-17T11:23:31.600Z,99268.52
2022-08-17T11:26:04.536Z,99268.81
2022-08-17T11:28:45.499Z,99267.07
2022-08-17T11:31:38.417Z,99265.17
2022-08-17T11:34:26.631Z,99271.17
2022-08-17T11:37:21.076Z,99276.94
2022-08-17T11:40:04.838Z,99280.67
2022-08-17T11:43:08.333Z,99286.96
2022-08-17T11:45:45.448Z,99285.23
2022-08-17T11:48:37.050Z,99289.48
2022-08-17T11:51:33.930Z,99289.86
2022-08-17T11:54:30.529Z,99282.79
2022-08-17T11:56:51.938Z,99277.56
2022-08-17T11:59:44.958Z,99278.02
2022-08-17T12:02:31.631Z,99276.59
2022-08-17T12:05:14.451Z,99275.31
2022-08-17T12:08:21.762Z,99273.38
2022-08-17T12:10:59.639Z,99278.05
2022-08-17T12:13:38.737Z,99277.86
2022-08-17T12:16:10.127Z,99275.50
2022-08-17T12:18:42.147Z,99272.20
2022-08-17T12:21:42.633Z,99268.23
2022-08-17T12:24:35.763Z,99269.92
2022-08-17T12:27:06.972Z,99265.55
2022-08-17T12:29:38.713Z,99265.42
2022-08-17T12:32:17.686Z,99259.09
2022-08-17T12:34:47.845Z,99258.00
2022-08-17T12:37:31.224Z,99255.29
2022-08-17T12:40:04.851Z,99267.44
2022-08-17T12:42:37.635Z,99267.38
2022-08-17T12:45:23.938Z,99266.81
2022-08-17T12:48:23.385Z,99264.55
2022-08-17T12:50:59.002Z,99263.77
2022-08-17T12:53:31.845Z,99265.46
2022-08-17T12:56:00.525Z,99265.01
2022-08-17T12:58:32.765Z,99270.52
2022-08-17T13:01:06.238Z,99272.98
2022-08-17T13:03:40.790Z,99271.92
2022-08-17T13:06:13.160Z,99267.86
2022-08-17T13:08:50.898Z,99266.17
2022-08-17T13:11:24.928Z,99264.68
2022-08-17T13:13:56.992Z,99264.52
2022-08-17T13:16:33.606Z,99268.44
2022-08-17T13:19:15.269Z,99266.23
2022-08-17T13:21:52.813Z,99267.91
2022-08-17T13:24:26.009Z,99259.23
2022-08-17T13:27:13.224Z,99260.52
2022-08-17T13:29:53.895Z,99261.95
2022-08-17T13:32:36.452Z,99262.27
2022-08-17T13:35:33.422Z,99268.36
2022-08-17T13:38:38.111Z,99266.58
2022-08-17T13:41:07.625Z,99262.58
2022-08-17T13:43:45.290Z,99259.56
2022-08-17T13:46:25.428Z,99253.40
2022-08-17T13:49:21.170Z,99249.55
2022-08-17T13:51:52.232Z,99242.56
2022-08-17T13:54:35.167Z,99238.14
2022-08-17T13:57:06.422Z,99239.17
2022-08-17T13:59:54.412Z,99234.70
2022-08-17T14:02:26.100Z,99233.82
2022-08-17T14:04:58.727Z,99230.71
2022-08-17T14:07:32.227Z,99227.59
2022-08-17T14:10:08.381Z,99224.95
2022-08-17T14:12:40.440Z,99231.86
2022-08-17T14:15:16.223Z,99229.01
2022-08-17T14:17:44.886Z,99231.27
2022-08-17T14:20:13.906Z,99236.61
2022-08-17T14:22:54.057Z,99234.39
2022-08-17T14:25:26.891Z,99234.25
2022-08-17T14:27:59.834Z,99231.95
2022-08-17T14:30:29.870Z,99232.94
2022-08-17T14:32:59.358Z,99236.83
2022-08-17T14:35:34.595Z,99238.35
2022-08-17T14:38:06.223Z,99238.63
2022-08-17T14:40:36.341Z,99239.23
2022-08-17T14:43:05.659Z,99237.09
2022-08-17T14:45:33.769Z,99237.43
2022-08-17T14:48:08.022Z,99237.86
2022-08-17T14:50:41.890Z,99248.54
2022-08-17T14:53:13.942Z,99254.39
2022-08-17T14:55:43.741Z,99254.77
2022-08-17T14:58:15.332Z,99260.88
2022-08-17T15:00:53.206Z,99262.72
2022-08-17T15:03:21.654Z,99261.81
2022-08-17T15:05:49.853Z,99266.86
2022-08-17T15:08:19.891Z,99270.64
2022-08-17T15:10:54.188Z,99272.00
2022-08-17T15:13:26.115Z,99275.80
2022-08-17T15:15:54.466Z,99275.15
2022-08-17T15:18:25.177Z,99280.61
2022-08-17T15:20:54.990Z,99278.83
2022-08-17T15:23:29.164Z,99284.77
2022-08-17T15:25:57.944Z,99282.17
2022-08-17T15:28:26.545Z,99277.60
2022-08-17T15:30:55.366Z,99276.73
2022-08-17T15:33:30.771Z,99274.96
2022-08-17T15:36:13.700Z,99276.67
2022-08-17T15:38:46.277Z,99273.81
2022-08-17T15:41:18.635Z,99273.36
2022-08-17T15:43:50.260Z,99276.04
2022-08-17T15:46:21.187Z,99277.54
2022-08-17T15:48:52.112Z,99283.55
2022-08-17T15:51:24.281Z,99283.99
2022-08-17T15:54:19.368Z,99282.55
2022-08-17T15:56:51.261Z,99284.56
2022-08-17T15:59:19.604Z,99292.64
2022-08-17T16:03:01.456Z,99294.58
2022-08-17T16:04:45.062Z,99310.02
2022-08-17T16:07:26.483Z,99323.88
2022-08-17T16:09:56.453Z,99327.10
2022-08-17T16:12:25.293Z,99321.07
2022-08-17T16:14:56.887Z,99327.35
2022-08-17T16:17:38.555Z,99327.85
2022-08-17T16:20:09.737Z,99333.66
2022-08-17T16:22:50.606Z,99334.80
2022-08-17T16:25:53.110Z,99334.10
2022-08-17T16:28:16.751Z,99336.93
2022-08-17T16:30:45.767Z,99337.04
2022-08-17T16:33:15.325Z,99340.65
2022-08-17T16:35:43.510Z,99341.33
2022-08-17T16:38:12.648Z,99346.83
2022-08-17T16:40:42.989Z,99347.58
2022-08-17T16:43:12.152Z,99350.76
2022-08-17T16:45:41.208Z,99350.05
2022-08-17T16:48:09.869Z,99352.27
2022-08-17T16:50:38.225Z,99348.07
2022-08-17T16:53:17.256Z,99325.95
2022-08-17T16:55:52.038Z,99348.88
2022-08-17T16:58:20.476Z,99354.91
2022-08-17T17:00:48.908Z,99361.35
2022-08-17T17:03:24.988Z,99365.38
2022-08-17T17:06:16.440Z,99369.77
2022-08-17T17:08:56.303Z,99369.70
2022-08-17T17:11:44.638Z,99369.88
2022-08-17T17:14:31.868Z,99368.11
2022-08-17T17:17:07.187Z,99364.83
2022-08-17T17:19:50.887Z,99363.33
2022-08-17T17:22:22.134Z,99363.83
2022-08-17T17:25:18.075Z,99356.98
2022-08-17T17:28:15.192Z,99363.20
2022-08-17T17:30:51.949Z,99367.80
2022-08-17T17:33:27.409Z,99367.62
2022-08-17T17:36:08.488Z,99369.97
2022-08-17T17:38:45.855Z,99367.14
2022-08-17T17:41:26.321Z,99368.09
2022-08-17T17:44:03.384Z,99367.18
2022-08-17T17:46:37.561Z,99372.10
2022-08-17T17:49:11.307Z,99377.64
2022-08-17T17:51:55.722Z,99387.86
2022-08-17T17:55:13.300Z,99390.69
2022-08-17T17:57:55.916Z,99392.38
2022-08-17T18:00:35.027Z,99394.85
2022-08-17T18:03:35.567Z,99397.31
2022-08-17T18:06:34.158Z,99395.29
2022-08-17T18:09:19.458Z,99400.16
2022-08-17T18:12:23.937Z,99400.75
2022-08-17T18:15:08.579Z,99398.08
2022-08-17T18:17:36.839Z,99396.23
2022-08-17T18:20:07.207Z,99400.73
2022-08-17T18:22:35.404Z,99403.93
2022-08-17T18:25:45.110Z,99403.92
2022-08-17T18:28:31.001Z,99405.48
2022-08-17T18:31:18.835Z,99405.92
2022-08-17T18:33:50.849Z,99407.90
2022-08-17T18:36:33.155Z,99410.07
2022-08-17T18:39:17.532Z,99406.08
2022-08-17T18:41:49.094Z,99402.09
2022-08-17T18:44:43.115Z,99391.73
2022-08-17T18:47:26.846Z,99395.33
2022-08-17T18:49:59.364Z,99394.20
2022-08-17T18:52:29.044Z,99395.48
2022-08-17T18:55:13.067Z,99393.30
2022-08-17T18:57:45.418Z,99390.14
2022-08-17T19:00:18.423Z,99390.72
2022-08-17T19:02:56.339Z,99384.58
2022-08-17T19:05:36.837Z,99381.98
2022-08-17T19:08:29.659Z,99383.13
2022-08-17T19:11:01.665Z,99381.23
2022-08-17T19:13:38.853Z,99380.16
2022-08-17T19:16:21.863Z,99381.30
2022-08-17T19:19:02.846Z,99375.31
2022-08-17T19:21:36.554Z,99383.38
2022-08-17T19:24:26.615Z,99383.86
2022-08-17T19:27:16.110Z,99383.11
2022-08-17T19:30:07.494Z,99387.03
2022-08-17T19:32:36.269Z,99386.96
2022-08-17T19:35:07.642Z,99389.94
2022-08-17T19:37:35.710Z,99396.09
2022-08-17T19:40:52.351Z,99391.17
2022-08-17T19:43:21.072Z,99392.58
2022-08-17T19:46:06.187Z,99388.67
2022-08-17T19:48:45.731Z,99387.39
2022-08-17T19:51:31.963Z,99389.89
2022-08-17T19:54:25.722Z,99392.42
2022-08-17T19:57:01.961Z,99392.58
2022-08-17T19:59:48.389Z,99391.94
2022-08-17T20:02:33.743Z,99397.11
2022-08-17T20:05:15.999Z,99396.10
2022-08-17T20:07:51.383Z,99397.02
2022-08-17T20:10:34.375Z,99397.33
2022-08-17T20:13:09.455Z,99398.63
2022-08-17T20:15:42.137Z,99397.53
2022-08-17T20:18:37.853Z,99400.41
2022-08-17T20:21:22.051Z,99401.25
2022-08-17T20:24:06.371Z,99400.24
2022-08-17T20:26:58.954Z,99401.52
2022-08-17T20:29:40.300Z,99402.02
2022-08-17T20:32:18.995Z,99400.27
2022-08-17T20:34:48.061Z,99399.66
2022-08-17T20:37:16.112Z,99399.27
2022-08-17T20:40:06.581Z,99400.55
2022-08-17T20:42:36.642Z,99403.52
2022-08-17T20:45:26.542Z,99404.84
2022-08-17T20:48:33.353Z,99401.74
2022-08-17T20:50:52.648Z,99405.58
2022-08-17T20:53:49.451Z,99404.70
2022-08-17T20:56:45.112Z,99412.02
2022-08-17T20:59:30.589Z,99414.35
2022-08-17T21:02:17.540Z,99416.05
2022-08-17T21:04:50.078Z,99418.81
2022-08-17T21:07:24.180Z,99415.32
2022-08-17T21:09:52.862Z,99418.56
2022-08-17T21:13:08.281Z,99417.73
2022-08-17T21:15:52.602Z,99413.14
2022-08-17T21:18:38.972Z,99418.39
2022-08-17T21:21:59.510Z,99415.66
2022-08-17T21:24:57.876Z,99416.59
2022-08-17T21:27:53.833Z,99415.11
2022-08-17T21:30:27.913Z,99416.31
2022-08-17T21:33:12.272Z,99413.95
2022-08-17T21:36:04.854Z,99415.11
2022-08-17T21:39:01.293Z,99413.09
2022-08-17T21:41:33.899Z,99417.63
2022-08-17T21:44:37.020Z,99422.29
2022-08-17T21:47:14.765Z,99422.80
2022-08-17T21:49:43.770Z,99420.48
2022-08-17T21:52:17.836Z,99425.56
2022-08-17T21:54:58.340Z,99427.02
2022-08-17T21:57:29.046Z,99429.68
2022-08-17T22:00:02.760Z,99426.70
2022-08-17T22:02:41.968Z,99427.81
2022-08-17T22:05:14.737Z,99430.87
2022-08-17T22:07:51.047Z,99430.98
2022-08-17T22:11:03.283Z,99429.45
2022-08-17T22:13:31.564Z,99426.54
2022-08-17T22:16:15.448Z,99425.91
2022-08-17T22:18:54.393Z,99431.84
2022-08-17T22:21:22.769Z,99429.36
2022-08-17T22:24:06.973Z,99433.82
2022-08-17T22:27:07.684Z,99430.42
2022-08-17T22:29:47.624Z,99434.21
2022-08-17T22:32:35.688Z,99430.06
2022-08-17T22:35:34.886Z,99429.27
2022-08-17T22:38:18.326Z,99431.10
2022-08-17T22:40:46.367Z,99427.72
2022-08-17T22:43:15.466Z,99428.27
2022-08-17T22:45:51.601Z,99427.21
2022-08-17T22:48:39.384Z,99427.61
2022-08-17T22:51:13.483Z,99425.73
2022-08-17T22:54:34.532Z,99425.84
2022-08-17T22:57:23.463Z,99422.81
2022-08-17T22:59:54.602Z,99422.98
2022-08-17T23:02:25.501Z,99418.44
2022-08-17T23:05:13.519Z,99422.61
2022-08-17T23:07:43.301Z,99423.63
2022-08-17T23:10:12.695Z,99425.26
2022-08-17T23:12:41.461Z,99426.64
2022-08-17T23:15:14.472Z,99429.66
2022-08-17T23:17:45.361Z,99426.17
2022-08-17T23:20:16.305Z,99431.66
2022-08-17T23:22:51.522Z,99428.23
2022-08-17T23:25:33.597Z,99426.76
2022-08-17T23:28:04.823Z,99426.45
2022-08-17T23:30:37.114Z,99426.00
2022-08-17T23:33:14.456Z,99429.73
2022-08-17T23:35:44.187Z,99428.57
2022-08-17T23:38:13.196Z,99427.09
2022-08-17T23:40:41.337Z,99423.54
2022-08-17T23:43:25.306Z,99423.31
2022-08-17T23:45:55.162Z,99427.29
2022-08-17T23:48:27.827Z,99426.80
2022-08-17T23:51:16.757Z,99425.69
2022-08-17T23:53:48.358Z,99420.94
2022-08-17T23:56:19.634Z,99425.23
2022-08-17T23:58:48.273Z,99430.94
